Time;durP1;ratioP1;P1;durP2;ratioP2;P2;SDS_P1;SDS_P2;PMS_P1;PMS_P2;Temp;Humidity;BMP_temperature;BMP_pressure;BME280_temperature;BME280_humidity;BME280_pressure;Samples;Min_cycle;Max_cycle;Signal;HPM_P1;HPM_P2
2022/06/10 00:02:10;;;;;;;7.25;6.75;;;;;;;;;;5036985;28;20033;-64
2022/06/10 00:04:35;;;;;;;7.70;7.15;;;;;;;;;;5034383;28;20417;-64
2022/06/10 00:07:01;;;;;;;7.57;6.88;;;;;;;;;;5032214;28;20546;-64
2022/06/10 00:09:27;;;;;;;7.63;7.13;;;;;;;;;;5037315;28;20035;-64
2022/06/10 00:11:53;;;;;;;7.38;6.88;;;;;;;;;;5037218;28;20026;-64
2022/06/10 00:14:18;;;;;;;8.15;7.57;;;;;;;;;;5035284;28;20040;-64
2022/06/10 00:16:43;;;;;;;8.35;7.78;;;;;;;;;;5035703;28;20125;-64
2022/06/10 00:19:09;;;;;;;8.52;7.93;;;;;;;;;;5038518;28;20116;-64
2022/06/10 00:21:34;;;;;;;7.68;7.18;;;;;;;;;;5033120;28;20041;-64
2022/06/10 00:23:59;;;;;;;8.57;8.05;;;;;;;;;;5034211;28;20037;-64
2022/06/10 00:26:25;;;;;;;8.65;8.13;;;;;;;;;;5035803;28;20033;-64
2022/06/10 00:28:50;;;;;;;9.13;8.43;;;;;;;;;;5034146;28;20037;-64
2022/06/10 00:31:17;;;;;;;8.32;7.82;;;;;;;;;;5036293;28;20025;-63
2022/06/10 00:33:42;;;;;;;8.30;7.60;;;;;;;;;;5033680;28;20449;-63
2022/06/10 00:36:09;;;;;;;9.52;8.90;;;;;;;;;;5032480;28;20032;-63
2022/06/10 00:38:34;;;;;;;9.93;9.32;;;;;;;;;;5032825;28;20041;-62
2022/06/10 00:41:00;;;;;;;9.38;8.70;;;;;;;;;;5035442;28;20051;-62
2022/06/10 00:43:33;;;;;;;9.75;9.10;;;;;;;;;;5034216;28;20044;-62
2022/06/10 00:46:22;;;;;;;8.82;8.23;;;;;;;;;;5033119;28;20037;-63
2022/06/10 00:48:49;;;;;;;10.15;9.55;;;;;;;;;;5035695;28;20080;-63
2022/06/10 00:51:39;;;;;;;9.25;8.65;;;;;;;;;;5031401;28;20037;-62
2022/06/10 00:54:42;;;;;;;9.05;8.45;;;;;;;;;;5033097;28;20119;-62
2022/06/10 00:57:21;;;;;;;9.43;8.82;;;;;;;;;;5036268;28;20029;-62
2022/06/10 01:00:00;;;;;;;9.23;8.63;;;;;;;;;;5033777;28;20033;-62
2022/06/10 01:02:30;;;;;;;8.18;7.68;;;;;;;;;;5031642;28;20037;-62
2022/06/10 01:04:57;;;;;;;9.35;8.75;;;;;;;;;;5035963;28;20061;-62
2022/06/10 01:07:27;;;;;;;8.85;8.25;;;;;;;;;;5034053;28;20033;-62
2022/06/10 01:09:54;;;;;;;9.98;9.38;;;;;;;;;;5034047;28;20029;-62
2022/06/10 01:12:43;;;;;;;10.07;9.40;;;;;;;;;;5030339;28;20462;-63
2022/06/10 01:15:32;;;;;;;9.80;9.20;;;;;;;;;;5027039;28;20478;-62
2022/06/10 01:18:10;;;;;;;9.20;8.60;;;;;;;;;;5031638;28;20112;-62
2022/06/10 01:21:11;;;;;;;9.93;9.32;;;;;;;;;;5035207;28;20104;-62
2022/06/10 01:24:00;;;;;;;9.70;9.00;;;;;;;;;;5031990;28;20028;-62
2022/06/10 01:29:45;;;;;;;12.55;11.75;;;;;;;;;;5030068;28;20037;-62
2022/06/10 01:32:21;;;;;;;11.02;10.32;;;;;;;;;;5036811;28;20044;-64
2022/06/10 01:35:01;;;;;;;10.88;10.10;;;;;;;;;;5035885;28;20060;-63
2022/06/10 01:37:48;;;;;;;11.60;10.90;;;;;;;;;;5014889;28;20596;-63
2022/06/10 01:40:51;;;;;;;10.70;10.00;;;;;;;;;;5034749;28;20387;-63
2022/06/10 01:43:41;;;;;;;11.32;10.63;;;;;;;;;;5032412;28;20462;-63
2022/06/10 01:46:25;;;;;;;10.90;10.23;;;;;;;;;;5033421;28;20041;-63
2022/06/10 01:48:55;;;;;;;10.80;10.10;;;;;;;;;;5035909;28;20033;-63
2022/06/10 01:51:30;;;;;;;11.43;10.73;;;;;;;;;;5033984;28;20125;-63
2022/06/10 01:54:01;;;;;;;11.07;10.38;;;;;;;;;;5032180;28;20112;-63
2022/06/10 01:56:34;;;;;;;11.82;11.13;;;;;;;;;;5029104;28;20033;-63
2022/06/10 01:59:08;;;;;;;10.82;10.13;;;;;;;;;;5034721;28;20052;-63
2022/06/10 02:01:41;;;;;;;10.93;10.13;;;;;;;;;;5033300;28;20182;-63
2022/06/10 02:04:13;;;;;;;11.77;10.68;;;;;;;;;;5038339;28;20423;-63
2022/06/10 02:06:48;;;;;;;12.18;11.48;;;;;;;;;;5032554;28;20032;-63
2022/06/10 02:09:19;;;;;;;11.18;10.48;;;;;;;;;;5036746;28;20056;-63
2022/06/10 02:11:53;;;;;;;12.48;11.65;;;;;;;;;;5032479;28;20568;-63
2022/06/10 02:14:24;;;;;;;10.95;10.25;;;;;;;;;;5032399;28;20095;-63
2022/06/10 02:16:50;;;;;;;10.45;9.85;;;;;;;;;;5035019;28;20030;-63
2022/06/10 02:19:24;;;;;;;10.80;10.10;;;;;;;;;;5034726;28;20041;-63
2022/06/10 02:22:01;;;;;;;11.13;10.43;;;;;;;;;;5033862;28;20379;-63
2022/06/10 02:24:31;;;;;;;10.95;10.25;;;;;;;;;;5032233;28;20033;-63
2022/06/10 02:27:04;;;;;;;10.30;9.60;;;;;;;;;;5032311;28;20468;-63
2022/06/10 02:29:35;;;;;;;10.32;9.63;;;;;;;;;;5030431;28;20091;-63
2022/06/10 02:32:01;;;;;;;10.05;9.45;;;;;;;;;;5032012;28;20095;-63
2022/06/10 02:34:27;;;;;;;9.25;8.65;;;;;;;;;;5031023;28;20065;-63
2022/06/10 02:37:02;;;;;;;10.48;9.77;;;;;;;;;;5031563;28;20635;-63
2022/06/10 02:39:49;;;;;;;9.23;8.63;;;;;;;;;;5029543;28;20684;-62
2022/06/10 02:42:26;;;;;;;19.17;8.60;;;;;;;;;;5034166;28;20068;-63
2022/06/10 02:44:56;;;;;;;9.65;9.05;;;;;;;;;;5031683;28;20570;-63
2022/06/10 02:47:33;;;;;;;8.73;8.15;;;;;;;;;;5031564;28;20249;-63
2022/06/10 02:49:59;;;;;;;10.45;9.80;;;;;;;;;;5031878;28;20040;-63
2022/06/10 02:52:29;;;;;;;10.43;9.82;;;;;;;;;;5030831;28;20128;-63
2022/06/10 02:54:55;;;;;;;11.18;10.48;;;;;;;;;;5032202;28;20642;-62
2022/06/10 03:01:11;;;;;;;9.88;9.27;;;;;;;;;;5032040;28;20040;-63
2022/06/10 03:03:48;;;;;;;9.13;8.52;;;;;;;;;;5031563;28;20393;-62
2022/06/10 03:06:34;;;;;;;9.93;9.32;;;;;;;;;;5020812;28;20489;-63
2022/06/10 03:09:27;;;;;;;10.85;10.15;;;;;;;;;;5031592;28;20037;-63
2022/06/10 03:12:08;;;;;;;10.48;9.88;;;;;;;;;;5031459;28;20032;-63
2022/06/10 03:14:51;;;;;;;9.55;8.95;;;;;;;;;;5031830;28;20029;-62
2022/06/10 03:17:31;;;;;;;10.48;9.88;;;;;;;;;;5029878;28;20048;-63
2022/06/10 03:20:18;;;;;;;10.77;10.07;;;;;;;;;;5033210;28;20025;-63
2022/06/10 03:23:13;;;;;;;10.60;9.90;;;;;;;;;;5026345;28;20029;-62
2022/06/10 03:26:04;;;;;;;9.85;9.25;;;;;;;;;;5030245;28;20029;-63
2022/06/10 03:28:52;;;;;;;9.77;9.17;;;;;;;;;;5028143;28;20029;-63
2022/06/10 03:31:42;;;;;;;9.85;9.25;;;;;;;;;;5030001;28;20040;-62
2022/06/10 03:34:26;;;;;;;10.80;10.15;;;;;;;;;;5027206;28;20663;-63
2022/06/10 03:36:52;;;;;;;9.32;8.73;;;;;;;;;;5032209;28;20529;-63
2022/06/10 03:39:20;;;;;;;11.15;10.45;;;;;;;;;;5034794;28;20417;-63
2022/06/10 03:42:03;;;;;;;9.70;9.10;;;;;;;;;;5033932;28;20064;-62
2022/06/10 03:44:29;;;;;;;8.05;7.55;;;;;;;;;;5032110;28;20377;-62
2022/06/10 03:46:56;;;;;;;9.65;9.05;;;;;;;;;;5034352;28;20076;-62
2022/06/10 03:49:28;;;;;;;11.02;10.32;;;;;;;;;;5034448;28;20037;-62
2022/06/10 03:51:53;;;;;;;11.73;11.02;;;;;;;;;;5035901;28;20052;-62
2022/06/10 03:54:20;;;;;;;11.35;10.65;;;;;;;;;;5031505;28;20711;-63
2022/06/10 03:56:46;;;;;;;10.75;10.05;;;;;;;;;;5027514;28;20391;-62
2022/06/10 03:59:12;;;;;;;10.48;9.80;;;;;;;;;;5036450;28;20068;-62
2022/06/10 04:01:38;;;;;;;9.80;9.20;;;;;;;;;;5034085;28;20060;-62
2022/06/10 04:04:03;;;;;;;10.07;9.48;;;;;;;;;;5033758;28;20507;-62
2022/06/10 04:06:29;;;;;;;9.45;8.85;;;;;;;;;;5035751;28;20525;-61
2022/06/10 04:08:55;;;;;;;10.75;10.05;;;;;;;;;;5038235;28;20029;-61
2022/06/10 04:11:20;;;;;;;9.73;9.02;;;;;;;;;;5029419;28;20421;-62
2022/06/10 04:13:46;;;;;;;10.32;9.73;;;;;;;;;;5035592;28;20087;-62
2022/06/10 04:16:12;;;;;;;11.07;10.38;;;;;;;;;;5032541;28;20674;-62
2022/06/10 04:18:38;;;;;;;12.10;11.32;;;;;;;;;;5033477;28;20047;-62
2022/06/10 04:21:05;;;;;;;12.70;11.80;;;;;;;;;;5034425;28;20037;-61
2022/06/10 04:23:30;;;;;;;13.02;12.23;;;;;;;;;;5038366;28;20475;-61
2022/06/10 04:25:56;;;;;;;11.35;10.65;;;;;;;;;;5035483;28;20063;-61
2022/06/10 04:28:21;;;;;;;11.25;10.55;;;;;;;;;;5035931;28;20030;-61
2022/06/10 04:30:50;;;;;;;11.00;10.30;;;;;;;;;;5034700;28;20128;-61
2022/06/10 04:33:16;;;;;;;9.05;8.45;;;;;;;;;;5037356;28;20034;-61
2022/06/10 04:35:43;;;;;;;9.25;8.65;;;;;;;;;;5034232;28;20057;-61
2022/06/10 04:38:12;;;;;;;11.38;10.68;;;;;;;;;;5032212;28;20095;-61
2022/06/10 04:40:38;;;;;;;9.73;9.10;;;;;;;;;;5036721;28;20143;-61
2022/06/10 04:43:06;;;;;;;11.77;11.07;;;;;;;;;;5036928;28;20025;-61
2022/06/10 04:45:38;;;;;;;10.80;10.10;;;;;;;;;;5014246;28;20305;-61
2022/06/10 04:48:04;;;;;;;13.77;12.98;;;;;;;;;;5031161;28;20033;-61
2022/06/10 04:50:30;;;;;;;13.30;12.40;;;;;;;;;;5032984;28;20768;-61
2022/06/10 04:52:57;;;;;;;13.68;12.73;;;;;;;;;;5032839;28;20271;-61
2022/06/10 04:55:23;;;;;;;13.75;12.95;;;;;;;;;;5034010;28;20037;-62
2022/06/10 04:57:49;;;;;;;14.98;13.70;;;;;;;;;;5034011;28;20090;-62
2022/06/10 05:00:20;;;;;;;13.05;12.25;;;;;;;;;;5033940;28;20041;-61
2022/06/10 05:02:45;;;;;;;14.20;13.32;;;;;;;;;;5033081;28;20029;-62
2022/06/10 05:05:10;;;;;;;13.85;13.05;;;;;;;;;;5033349;28;20525;-62
2022/06/10 05:07:36;;;;;;;13.88;13.07;;;;;;;;;;5034980;28;20631;-61
2022/06/10 05:10:03;;;;;;;13.02;12.27;;;;;;;;;;5034229;28;20025;-62
2022/06/10 05:12:28;;;;;;;13.90;13.05;;;;;;;;;;5036086;28;20056;-62
2022/06/10 05:14:53;;;;;;;12.90;12.10;;;;;;;;;;5033169;28;20053;-62
2022/06/10 05:17:19;;;;;;;13.02;12.25;;;;;;;;;;5033153;28;20129;-61
2022/06/10 05:19:46;;;;;;;12.52;11.73;;;;;;;;;;5036064;28;20025;-61
2022/06/10 05:22:13;;;;;;;13.68;12.88;;;;;;;;;;5028343;28;20037;-60
2022/06/10 05:24:39;;;;;;;15.63;14.73;;;;;;;;;;5033475;28;20029;-61
2022/06/10 05:27:05;;;;;;;13.15;12.35;;;;;;;;;;5031001;28;20430;-60
2022/06/10 05:29:30;;;;;;;9.68;9.07;;;;;;;;;;5031569;28;20044;-60
2022/06/10 05:31:56;;;;;;;12.75;11.85;;;;;;;;;;5029568;28;20033;-60
2022/06/10 05:37:05;;;;;;;17.58;16.50;;;;;;;;;;5027708;28;20249;-60
2022/06/10 05:39:30;;;;;;;10.75;9.93;;;;;;;;;;5030662;28;20044;-60
2022/06/10 05:42:04;;;;;;;13.18;12.38;;;;;;;;;;5030925;28;20029;-60
2022/06/10 05:44:34;;;;;;;11.98;11.27;;;;;;;;;;5030083;28;20080;-60
2022/06/10 05:47:03;;;;;;;11.75;11.00;;;;;;;;;;5033280;28;20171;-60
2022/06/10 05:49:29;;;;;;;15.90;15.00;;;;;;;;;;5032356;28;20057;-60
2022/06/10 05:51:55;;;;;;;16.20;15.30;;;;;;;;;;5033048;28;20033;-60
2022/06/10 05:54:21;;;;;;;16.33;15.35;;;;;;;;;;5030820;28;20094;-61
2022/06/10 05:56:46;;;;;;;14.50;13.60;;;;;;;;;;5033684;28;20040;-61
2022/06/10 05:59:14;;;;;;;15.27;14.38;;;;;;;;;;5031646;28;20064;-61
2022/06/10 06:01:39;;;;;;;16.17;15.25;;;;;;;;;;5027473;28;20047;-61
2022/06/10 06:04:05;;;;;;;16.10;15.20;;;;;;;;;;5033018;28;20037;-61
2022/06/10 06:06:30;;;;;;;12.75;11.95;;;;;;;;;;5031195;28;20021;-62
2022/06/10 06:08:55;;;;;;;13.75;12.95;;;;;;;;;;5029040;28;20041;-62
2022/06/10 06:11:21;;;;;;;14.20;13.40;;;;;;;;;;5033563;28;20151;-62
2022/06/10 06:13:46;;;;;;;13.70;12.90;;;;;;;;;;5031935;28;20017;-62
2022/06/10 06:16:14;;;;;;;14.48;13.60;;;;;;;;;;5033021;28;20041;-62
2022/06/10 06:18:40;;;;;;;17.08;16.08;;;;;;;;;;5034090;28;20048;-62
2022/06/10 06:21:06;;;;;;;17.95;16.95;;;;;;;;;;5030648;28;20034;-62
2022/06/10 06:23:31;;;;;;;14.95;14.05;;;;;;;;;;5034884;28;20615;-62
2022/06/10 06:25:57;;;;;;;16.63;15.68;;;;;;;;;;5034018;28;20364;-62
2022/06/10 06:28:23;;;;;;;15.05;14.15;;;;;;;;;;5031446;28;20048;-62
2022/06/10 06:30:48;;;;;;;15.95;15.05;;;;;;;;;;5029373;28;20036;-63
2022/06/10 06:33:14;;;;;;;18.83;17.73;;;;;;;;;;5035004;28;20029;-62
2022/06/10 06:35:40;;;;;;;15.07;14.15;;;;;;;;;;5032024;28;20048;-62
2022/06/10 06:38:06;;;;;;;16.48;15.48;;;;;;;;;;5029270;28;20519;-63
2022/06/10 06:40:31;;;;;;;16.58;15.55;;;;;;;;;;5029558;28;20498;-62
2022/06/10 06:42:57;;;;;;;16.45;15.10;;;;;;;;;;5029192;28;20029;-63
2022/06/10 06:45:23;;;;;;;17.33;16.33;;;;;;;;;;5031105;28;20577;-63
2022/06/10 06:47:51;;;;;;;13.93;13.05;;;;;;;;;;5033661;28;20025;-63
2022/06/10 06:50:20;;;;;;;17.75;16.73;;;;;;;;;;5034155;28;20030;-62
2022/06/10 06:52:46;;;;;;;13.73;12.93;;;;;;;;;;5029119;28;20040;-63
2022/06/10 06:55:11;;;;;;;17.65;16.65;;;;;;;;;;5030711;28;20028;-63
2022/06/10 06:57:37;;;;;;;26.25;24.85;;;;;;;;;;5033151;28;20061;-64
2022/06/10 07:00:06;;;;;;;20.05;18.95;;;;;;;;;;5033105;28;20478;-63
2022/06/10 07:02:33;;;;;;;14.60;13.77;;;;;;;;;;5028510;28;20041;-63
2022/06/10 07:04:58;;;;;;;14.43;13.57;;;;;;;;;;5030258;28;20029;-64
2022/06/10 07:07:24;;;;;;;15.85;14.85;;;;;;;;;;5031566;28;20557;-63
2022/06/10 07:09:49;;;;;;;15.23;14.00;;;;;;;;;;5033281;28;20033;-63
2022/06/10 07:12:15;;;;;;;31.35;29.73;;;;;;;;;;5038006;28;20041;-63
2022/06/10 07:14:40;;;;;;;27.75;26.27;;;;;;;;;;5038047;28;20033;-63
2022/06/10 07:17:05;;;;;;;31.23;29.52;;;;;;;;;;5039567;28;20132;-62
2022/06/10 07:19:32;;;;;;;27.05;25.38;;;;;;;;;;5039002;28;20124;-63
2022/06/10 07:21:58;;;;;;;30.50;28.35;;;;;;;;;;5037039;28;20072;-64
2022/06/10 07:24:23;;;;;;;32.13;30.42;;;;;;;;;;5041337;28;20123;-64
2022/06/10 07:26:48;;;;;;;30.25;28.55;;;;;;;;;;5036704;28;20025;-64
2022/06/10 07:29:14;;;;;;;16.30;15.40;;;;;;;;;;5039027;28;20128;-64
2022/06/10 07:31:41;;;;;;;28.48;26.98;;;;;;;;;;5040655;28;20115;-63
2022/06/10 07:34:08;;;;;;;16.48;15.57;;;;;;;;;;5039238;28;20029;-64
2022/06/10 07:36:34;;;;;;;38.55;36.47;;;;;;;;;;5040472;28;20041;-63
2022/06/10 07:38:59;;;;;;;31.27;29.48;;;;;;;;;;5037087;28;20122;-64
2022/06/10 07:44:09;;;;;;;48.05;45.60;;;;;;;;;;5039267;28;20076;-64
2022/06/10 07:46:34;;;;;;;34.33;32.53;;;;;;;;;;5040157;28;20619;-64
2022/06/10 07:49:00;;;;;;;16.67;15.77;;;;;;;;;;5044154;28;20490;-64
2022/06/10 07:51:25;;;;;;;20.73;19.63;;;;;;;;;;5041030;28;20049;-63
2022/06/10 07:53:50;;;;;;;40.55;38.45;;;;;;;;;;5038857;28;20154;-64
2022/06/10 07:56:17;;;;;;;36.33;34.25;;;;;;;;;;5036819;28;20494;-64
2022/06/10 07:58:44;;;;;;;18.98;17.95;;;;;;;;;;5040048;28;20440;-64
2022/06/10 08:01:10;;;;;;;18.42;17.42;;;;;;;;;;5037500;28;20044;-64
2022/06/10 08:03:36;;;;;;;23.25;21.95;;;;;;;;;;5036043;28;20125;-62
2022/06/10 08:06:03;;;;;;;25.95;24.55;;;;;;;;;;5037040;28;20174;-62
2022/06/10 08:08:28;;;;;;;28.85;27.25;;;;;;;;;;5035599;28;20103;-65
2022/06/10 08:10:55;;;;;;;25.40;24.05;;;;;;;;;;5038064;28;20112;-62
2022/06/10 08:13:21;;;;;;;27.77;26.25;;;;;;;;;;5036189;28;20029;-65
2022/06/10 08:15:47;;;;;;;19.10;18.10;;;;;;;;;;5037471;28;20044;-63
2022/06/10 08:18:15;;;;;;;24.85;23.45;;;;;;;;;;5037606;28;20115;-65
2022/06/10 08:23:28;;;;;;;29.08;27.58;;;;;;;;;;5032346;28;20109;-63
2022/06/10 08:25:54;;;;;;;76.25;72.47;;;;;;;;;;5035859;28;20543;-63
2022/06/10 08:28:20;;;;;;;61.08;58.03;;;;;;;;;;5033230;28;20036;-64
2022/06/10 08:30:45;;;;;;;77.85;73.93;;;;;;;;;;5035025;28;20029;-62
2022/06/10 08:33:11;;;;;;;62.22;59.10;;;;;;;;;;5036320;28;20056;-62
2022/06/10 08:35:37;;;;;;;85.40;81.18;;;;;;;;;;5035755;28;20041;-65
2022/06/10 08:38:06;;;;;;;78.75;74.85;;;;;;;;;;5036049;28;20072;-62
2022/06/10 08:40:57;;;;;;;76.47;72.47;;;;;;;;;;5035649;28;20646;-62
2022/06/10 08:43:41;;;;;;;21.85;20.67;;;;;;;;;;5036813;28;20612;-62
2022/06/10 08:46:09;;;;;;;96.53;91.72;;;;;;;;;;5031875;28;20037;-62
2022/06/10 08:49:13;;;;;;;51.03;48.45;;;;;;;;;;5034429;28;20029;-62
2022/06/10 08:51:58;;;;;;;34.95;32.97;;;;;;;;;;4993275;28;20463;-62
2022/06/10 08:54:34;;;;;;;58.92;56.00;;;;;;;;;;5030509;28;20051;-62
2022/06/10 08:57:06;;;;;;;62.97;59.83;;;;;;;;;;5033271;28;20063;-62
2022/06/10 08:59:38;;;;;;;85.97;81.75;;;;;;;;;;5032802;28;20033;-62
2022/06/10 09:02:39;;;;;;;55.38;52.60;;;;;;;;;;5033006;28;20043;-62
2022/06/10 09:05:13;;;;;;;41.58;39.40;;;;;;;;;;5033058;28;20650;-62
2022/06/10 09:07:47;;;;;;;37.08;35.10;;;;;;;;;;5032415;28;20091;-62
2022/06/10 09:10:33;;;;;;;37.40;35.50;;;;;;;;;;5035852;28;20029;-63
2022/06/10 09:13:13;;;;;;;34.35;32.55;;;;;;;;;;5036010;28;20088;-63
2022/06/10 09:15:51;;;;;;;70.03;66.55;;;;;;;;;;5032610;28;20421;-63
2022/06/10 09:18:34;;;;;;;71.45;67.85;;;;;;;;;;5031623;28;20048;-63
2022/06/10 09:21:08;;;;;;;43.85;41.60;;;;;;;;;;5034131;28;20038;-63
2022/06/10 09:23:43;;;;;;;100.43;95.43;;;;;;;;;;5030697;28;20579;-63
2022/06/10 09:26:17;;;;;;;57.38;54.45;;;;;;;;;;5034619;28;20090;-63
2022/06/10 09:28:42;;;;;;;59.67;56.67;;;;;;;;;;5035154;28;20056;-63
2022/06/10 09:31:28;;;;;;;91.53;87.03;;;;;;;;;;5029714;28;20064;-62
2022/06/10 09:34:00;;;;;;;89.50;85.00;;;;;;;;;;5031744;28;20044;-63
2022/06/10 09:36:42;;;;;;;44.58;42.33;;;;;;;;;;5018069;28;20033;-63
2022/06/10 09:42:09;;;;;;;96.72;91.95;;;;;;;;;;5036943;28;20482;-63
2022/06/10 09:44:51;;;;;;;87.97;83.63;;;;;;;;;;5035001;28;20028;-63
2022/06/10 09:47:55;;;;;;;55.28;52.47;;;;;;;;;;5033375;28;20029;-63
2022/06/10 09:50:46;;;;;;;50.63;48.05;;;;;;;;;;5034849;28;20402;-63
2022/06/10 09:53:45;;;;;;;61.33;58.22;;;;;;;;;;5034344;28;20043;-63
2022/06/10 09:56:32;;;;;;;43.47;41.28;;;;;;;;;;5031130;28;20033;-62
2022/06/10 09:59:18;;;;;;;80.20;76.22;;;;;;;;;;5033700;28;20362;-63
2022/06/10 10:01:58;;;;;;;46.78;44.40;;;;;;;;;;5032482;28;20052;-63
2022/06/10 10:04:33;;;;;;;90.90;86.43;;;;;;;;;;5030522;28;20136;-63
2022/06/10 10:07:13;;;;;;;105.55;100.32;;;;;;;;;;5032101;28;20422;-64
2022/06/10 10:09:57;;;;;;;;;;;;;;;;;;5034458;28;20036;-64
2022/06/10 10:12:36;;;;;;;100.72;95.75;;;;;;;;;;5034449;28;20304;-64
2022/06/10 10:15:14;;;;;;;101.60;96.57;;;;;;;;;;5033335;28;20033;-64
2022/06/10 10:17:49;;;;;;;88.53;84.10;;;;;;;;;;5032118;28;20029;-64
2022/06/10 10:20:23;;;;;;;120.88;114.93;;;;;;;;;;5034226;28;20264;-64
2022/06/10 10:23:13;;;;;;;116.35;110.63;;;;;;;;;;5030813;28;20029;-63
2022/06/10 10:25:41;;;;;;;137.85;131.05;;;;;;;;;;5032232;28;20032;-64
2022/06/10 10:28:15;;;;;;;125.95;119.72;;;;;;;;;;5034519;28;20029;-64
2022/06/10 10:30:58;;;;;;;145.98;138.73;;;;;;;;;;5032663;28;20116;-65
2022/06/10 10:33:23;;;;;;;155.38;147.68;;;;;;;;;;5033343;28;20037;-64
2022/06/10 10:35:54;;;;;;;110.90;105.43;;;;;;;;;;5031464;28;20703;-64
2022/06/10 10:38:40;;;;;;;128.55;122.15;;;;;;;;;;5030132;28;20030;-64
2022/06/10 10:41:13;;;;;;;176.00;167.27;;;;;;;;;;5031893;28;20099;-65
2022/06/10 10:43:39;;;;;;;126.50;120.22;;;;;;;;;;5030532;28;20112;-65
2022/06/10 10:46:07;;;;;;;104.72;99.28;;;;;;;;;;5032389;28;20115;-64
2022/06/10 10:48:43;;;;;;;113.78;108.18;;;;;;;;;;5033585;28;20031;-65
2022/06/10 10:51:11;;;;;;;100.50;95.57;;;;;;;;;;5031730;28;20029;-65
2022/06/10 10:53:41;;;;;;;107.10;101.80;;;;;;;;;;5032156;28;20029;-64
2022/06/10 10:56:09;;;;;;;99.10;94.22;;;;;;;;;;5027977;28;20091;-62
2022/06/10 10:58:38;;;;;;;188.45;179.10;;;;;;;;;;5030400;28;20049;-62
2022/06/10 11:01:43;;;;;;;118.22;112.40;;;;;;;;;;5030923;28;20072;-62
2022/06/10 11:03:55;;;;;;;294.60;279.92;;;;;;;;;;5033384;28;20053;-64
2022/06/10 11:06:39;;;;;;;287.15;272.90;;;;;;;;;;5029784;28;20524;-65
2022/06/10 11:09:22;;;;;;;293.30;278.70;;;;;;;;;;5032924;28;20029;-65
2022/06/10 11:11:50;;;;;;;309.98;294.65;;;;;;;;;;5035087;28;20029;-65
2022/06/10 11:14:27;;;;;;;331.55;315.02;;;;;;;;;;5033388;28;20029;-65
2022/06/10 11:17:11;;;;;;;224.50;213.52;;;;;;;;;;5032759;28;20037;-66
2022/06/10 11:19:37;;;;;;;97.50;92.70;;;;;;;;;;5029743;28;20491;-66
2022/06/10 11:22:02;;;;;;;74.32;70.38;;;;;;;;;;5029888;28;20044;-64
2022/06/10 11:24:37;;;;;;;95.10;90.40;;;;;;;;;;5030006;28;20029;-66
2022/06/10 11:27:19;;;;;;;83.07;78.95;;;;;;;;;;5016511;28;20025;-63
2022/06/10 11:29:57;;;;;;;80.22;76.22;;;;;;;;;;5032027;28;20021;-64
2022/06/10 11:32:26;;;;;;;83.38;79.22;;;;;;;;;;5027354;28;20404;-65
2022/06/10 11:35:27;;;;;;;236.57;225.07;;;;;;;;;;5028435;28;20029;-65
2022/06/10 11:38:00;;;;;;;63.58;60.38;;;;;;;;;;5026995;28;20080;-65
2022/06/10 11:40:38;;;;;;;59.17;56.17;;;;;;;;;;5033406;28;20029;-64
2022/06/10 11:43:19;;;;;;;75.10;71.38;;;;;;;;;;5031714;28;20375;-63
2022/06/10 11:45:54;;;;;;;53.03;50.33;;;;;;;;;;5030613;28;20771;-63
2022/06/10 11:48:45;;;;;;;74.38;70.68;;;;;;;;;;5031805;28;20155;-63
2022/06/10 11:51:17;;;;;;;80.28;76.22;;;;;;;;;;5030623;28;20041;-64
2022/06/10 11:53:57;;;;;;;53.88;51.17;;;;;;;;;;5031940;28;20439;-64
2022/06/10 11:59:56;;;;;;;64.97;61.75;;;;;;;;;;5036938;28;20060;-63
2022/06/10 12:02:35;;;;;;;70.53;67.03;;;;;;;;;;5038285;28;20056;-63
2022/06/10 12:05:04;;;;;;;68.47;65.07;;;;;;;;;;5031240;28;20029;-63
2022/06/10 12:07:33;;;;;;;67.93;64.53;;;;;;;;;;5029894;28;20522;-62
2022/06/10 12:10:02;;;;;;;75.70;71.95;;;;;;;;;;5035341;28;20037;-63
2022/06/10 12:12:36;;;;;;;72.78;69.07;;;;;;;;;;5033260;28;20070;-64
2022/06/10 12:15:15;;;;;;;68.70;65.10;;;;;;;;;;5033924;28;20056;-63
2022/06/10 12:17:44;;;;;;;69.95;66.47;;;;;;;;;;5033224;28;20051;-63
2022/06/10 12:20:20;;;;;;;70.55;67.05;;;;;;;;;;5036529;28;20059;-63
2022/06/10 12:22:46;;;;;;;70.25;66.20;;;;;;;;;;5034948;28;20450;-64
2022/06/10 12:25:17;;;;;;;59.10;56.15;;;;;;;;;;5032476;28;20034;-63
2022/06/10 12:27:52;;;;;;;49.50;47.00;;;;;;;;;;5035611;28;20021;-63
2022/06/10 12:30:22;;;;;;;50.90;48.33;;;;;;;;;;5033256;28;20661;-63
2022/06/10 12:33:17;;;;;;;50.78;48.22;;;;;;;;;;5034053;28;20042;-63
2022/06/10 12:35:44;;;;;;;64.70;61.50;;;;;;;;;;5034970;28;20045;-63
2022/06/10 12:38:29;;;;;;;46.83;44.42;;;;;;;;;;5033071;28;20033;-62
2022/06/10 12:41:03;;;;;;;48.25;45.80;;;;;;;;;;5033256;28;20044;-63
2022/06/10 12:43:36;;;;;;;53.65;50.95;;;;;;;;;;5033009;28;20022;-62
2022/06/10 12:46:06;;;;;;;49.13;46.65;;;;;;;;;;5030767;28;20451;-63
2022/06/10 12:48:40;;;;;;;60.30;57.22;;;;;;;;;;5035458;28;20192;-62
2022/06/10 12:51:12;;;;;;;62.90;59.75;;;;;;;;;;5036950;28;20521;-62
2022/06/10 12:53:43;;;;;;;54.60;51.88;;;;;;;;;;5034571;28;20034;-63
2022/06/10 12:56:24;;;;;;;67.72;64.32;;;;;;;;;;5034803;28;20033;-63
2022/06/10 12:59:19;;;;;;;56.38;53.40;;;;;;;;;;5037096;28;20387;-63
2022/06/10 13:01:46;;;;;;;62.50;59.38;;;;;;;;;;5031171;28;20033;-63
2022/06/10 13:04:11;;;;;;;55.45;52.65;;;;;;;;;;5032104;28;20154;-63
2022/06/10 13:06:42;;;;;;;188.55;179.23;;;;;;;;;;5034066;28;20033;-63
2022/06/10 13:09:10;;;;;;;118.22;112.43;;;;;;;;;;5034075;28;20090;-63
2022/06/10 13:11:53;;;;;;;50.38;47.80;;;;;;;;;;5033902;28;20103;-63
2022/06/10 13:14:35;;;;;;;55.92;53.03;;;;;;;;;;5030763;28;20033;-63
2022/06/10 13:17:20;;;;;;;46.95;44.55;;;;;;;;;;5030803;28;20128;-61
2022/06/10 13:19:51;;;;;;;41.72;39.60;;;;;;;;;;5034091;28;20616;-63
2022/06/10 13:22:19;;;;;;;68.38;64.97;;;;;;;;;;5033142;28;20053;-63
2022/06/10 13:25:07;;;;;;;73.60;69.93;;;;;;;;;;5031939;28;20021;-64
2022/06/10 13:27:46;;;;;;;67.25;63.85;;;;;;;;;;5032368;28;20029;-63
2022/06/10 13:30:31;;;;;;;62.35;59.25;;;;;;;;;;5033767;28;20105;-63
2022/06/10 13:33:06;;;;;;;66.97;63.63;;;;;;;;;;5031753;28;20056;-64
2022/06/10 13:35:34;;;;;;;62.67;59.55;;;;;;;;;;5030874;28;20510;-63
2022/06/10 13:38:15;;;;;;;68.97;65.53;;;;;;;;;;5029009;28;20040;-62
2022/06/10 13:40:47;;;;;;;51.40;48.80;;;;;;;;;;5028845;28;20040;-63
2022/06/10 13:43:25;;;;;;;60.97;57.88;;;;;;;;;;5032023;28;20052;-62
2022/06/10 13:45:51;;;;;;;60.38;57.38;;;;;;;;;;5027965;28;20344;-63
2022/06/10 13:48:20;;;;;;;58.63;55.67;;;;;;;;;;5031305;28;20056;-64
2022/06/10 13:51:16;;;;;;;58.88;55.92;;;;;;;;;;5028512;28;21011;-64
2022/06/10 13:53:56;;;;;;;65.45;62.15;;;;;;;;;;5032185;28;20405;-64
2022/06/10 13:56:27;;;;;;;64.03;60.83;;;;;;;;;;5030518;28;20036;-64
2022/06/10 13:58:54;;;;;;;58.42;55.53;;;;;;;;;;5031179;28;20030;-64
2022/06/10 14:01:32;;;;;;;64.45;61.22;;;;;;;;;;5028210;28;20155;-65
2022/06/10 14:04:09;;;;;;;61.55;58.42;;;;;;;;;;5031119;28;20037;-65
2022/06/10 14:06:45;;;;;;;53.35;50.65;;;;;;;;;;5029753;28;20544;-65
2022/06/10 14:09:20;;;;;;;61.85;58.75;;;;;;;;;;5033991;28;20175;-65
2022/06/10 14:12:02;;;;;;;66.38;63.08;;;;;;;;;;5033365;28;20037;-65
2022/06/10 14:14:28;;;;;;;59.28;56.28;;;;;;;;;;5033172;28;20037;-65
2022/06/10 14:17:07;;;;;;;54.42;51.70;;;;;;;;;;5030789;28;20040;-65
2022/06/10 14:19:46;;;;;;;54.08;51.35;;;;;;;;;;5028666;28;20112;-65
2022/06/10 14:22:25;;;;;;;59.75;56.75;;;;;;;;;;5032400;28;20043;-65
2022/06/10 14:25:16;;;;;;;69.15;65.72;;;;;;;;;;5032992;28;20021;-64
2022/06/10 14:28:08;;;;;;;60.13;57.13;;;;;;;;;;5032897;28;20053;-64
2022/06/10 14:30:34;;;;;;;63.97;60.78;;;;;;;;;;5029891;28;20041;-64
2022/06/10 14:33:16;;;;;;;65.78;62.47;;;;;;;;;;5031729;28;20055;-64
2022/06/10 14:35:49;;;;;;;56.55;53.72;;;;;;;;;;5030326;28;20029;-63
2022/06/10 14:38:16;;;;;;;55.80;53.00;;;;;;;;;;5030807;28;20060;-63
2022/06/10 14:40:58;;;;;;;50.15;47.63;;;;;;;;;;5032724;28;20120;-63
2022/06/10 14:43:27;;;;;;;56.60;53.80;;;;;;;;;;5032956;28;20021;-63
2022/06/10 14:46:11;;;;;;;55.78;52.97;;;;;;;;;;5031786;28;20110;-62
2022/06/10 14:48:41;;;;;;;57.75;54.85;;;;;;;;;;5029111;28;20037;-63
2022/06/10 14:51:28;;;;;;;58.28;55.38;;;;;;;;;;5029798;28;20033;-64
2022/06/10 14:53:57;;;;;;;43.95;41.70;;;;;;;;;;5031169;28;20473;-64
2022/06/10 14:56:35;;;;;;;42.97;40.78;;;;;;;;;;5031324;28;20040;-64
2022/06/10 14:59:22;;;;;;;60.05;57.03;;;;;;;;;;5032978;28;20033;-63
2022/06/10 15:01:50;;;;;;;53.90;51.20;;;;;;;;;;5028201;28;20033;-63
2022/06/10 15:04:15;;;;;;;41.63;39.53;;;;;;;;;;5030447;28;20029;-63
2022/06/10 15:06:44;;;;;;;47.50;45.10;;;;;;;;;;5031994;28;20044;-63
2022/06/10 15:09:15;;;;;;;43.70;41.50;;;;;;;;;;5031361;28;20044;-63
2022/06/10 15:11:42;;;;;;;47.67;45.22;;;;;;;;;;5029480;28;20119;-63
2022/06/10 15:14:12;;;;;;;54.10;51.40;;;;;;;;;;5030252;28;20041;-63
2022/06/10 15:16:40;;;;;;;46.15;43.85;;;;;;;;;;5028722;28;20068;-63